Terminal Aerodrome Forecast
Issued by NWS Quad Cities IA IL

Home | Current Version | Previous Version | Text Only | Print | Product List | Glossary On
Versions: 1 2 3 4 5 6 7 8 9 10 11 12 13 14 15 16
074
FTUS43 KDVN 151130
TAFMLI
TAF
KMLI 151130Z 1512/1612 30020G30KT P6SM OVC015
     FM151500 31019G28KT P6SM OVC025
     FM152200 31012KT P6SM BKN035
     FM160100 28004KT P6SM SKC=

USA.gov is the U.S. government's official web portal to all federal, state and local government web resources and services.